createdAt,value
2023-05-19T00:07:32.711Z,83.5890
2023-05-19T00:09:33.672Z,84.4526
2023-05-19T00:10:34.787Z,84.6709
2023-05-19T00:13:37.322Z,84.3423
2023-05-19T00:20:40.060Z,84.6250
2023-05-19T00:21:41.099Z,84.8011
2023-05-19T00:23:42.369Z,83.3671
2023-05-19T00:24:42.912Z,84.6492
2023-05-19T00:25:43.599Z,84.1440
2023-05-19T00:26:44.749Z,83.5404
2023-05-19T00:28:45.662Z,86.6055
2023-05-19T00:29:46.719Z,86.4134
2023-05-19T00:34:49.368Z,84.3510
2023-05-19T00:36:50.043Z,84.9834
2023-05-19T00:37:50.088Z,86.2972
2023-05-19T00:38:50.956Z,84.7038
2023-05-19T00:39:51.941Z,86.7856
2023-05-19T00:40:52.523Z,88.7799
2023-05-19T00:41:52.840Z,86.9120
2023-05-19T00:42:53.300Z,87.2977
2023-05-19T00:43:54.149Z,87.4844
2023-05-19T00:45:54.522Z,87.0238
2023-05-19T00:46:54.772Z,87.2790
2023-05-19T00:48:53.054Z,85.3862
2023-05-19T00:49:53.390Z,86.0999
2023-05-19T00:50:54.376Z,87.6257
2023-05-19T00:51:55.089Z,87.5199
2023-05-19T00:52:57.026Z,87.7266
2023-05-19T01:00:00.524Z,84.5621
2023-05-19T01:05:04.142Z,86.4490
2023-05-19T01:06:04.704Z,86.8825
2023-05-19T01:08:04.549Z,87.6358
2023-05-19T01:10:05.566Z,87.8903
2023-05-19T01:11:06.125Z,87.4204
2023-05-19T01:18:09.122Z,90.6592
2023-05-19T01:25:14.664Z,92.2542
2023-05-19T01:27:15.383Z,91.8321
2023-05-19T01:29:16.427Z,92.2082
2023-05-19T01:37:21.055Z,90.9582
2023-05-19T01:40:21.560Z,90.1785
2023-05-19T01:41:22.479Z,90.7652
2023-05-19T01:42:23.270Z,90.0280
2023-05-19T01:43:23.661Z,90.2827
2023-05-19T01:45:26.309Z,88.7383
2023-05-19T01:47:27.944Z,89.1217
2023-05-19T01:58:35.410Z,88.8451
2023-05-19T01:59:36.504Z,87.7954
2023-05-19T02:00:37.569Z,89.7122
2023-05-19T02:01:38.409Z,90.4479
2023-05-19T02:08:42.002Z,87.9803
2023-05-19T02:10:43.378Z,88.1278
2023-05-19T02:11:44.520Z,89.1840
2023-05-19T02:12:44.664Z,89.6677
2023-05-19T02:13:45.684Z,89.5520
2023-05-19T02:14:46.036Z,90.2967
2023-05-19T02:15:49.077Z,91.1426
2023-05-19T02:16:50.410Z,90.5402
2023-05-19T02:17:51.115Z,90.0920
2023-05-19T02:18:51.537Z,90.2191
2023-05-19T02:19:51.531Z,90.6626
2023-05-19T02:20:52.442Z,90.0633
2023-05-19T02:21:52.988Z,88.7367
2023-05-19T02:22:53.936Z,88.1699
2023-05-19T02:23:54.592Z,88.6702
2023-05-19T02:24:54.639Z,89.7127
2023-05-19T02:25:55.484Z,90.3306
2023-05-19T02:26:55.978Z,90.4809
2023-05-19T02:27:57.350Z,89.7398
2023-05-19T02:28:58.107Z,90.3342
2023-05-19T02:29:58.102Z,90.9372
2023-05-19T02:31:00.069Z,90.3696
2023-05-19T02:32:00.906Z,89.0235
2023-05-19T02:39:03.809Z,87.8040
2023-05-19T02:42:06.234Z,87.9950
2023-05-19T02:44:07.122Z,88.4933
2023-05-19T02:53:19.514Z,88.1083
2023-05-19T02:54:19.723Z,88.9985
2023-05-19T02:55:21.066Z,88.8970
2023-05-19T02:56:22.181Z,87.8438
2023-05-19T02:57:24.166Z,89.0157
2023-05-19T02:58:24.300Z,88.8181
2023-05-19T02:59:25.708Z,88.5831
2023-05-19T03:00:24.937Z,89.1820
2023-05-19T03:01:25.667Z,89.2242
2023-05-19T03:02:26.006Z,88.9990
2023-05-19T03:03:26.651Z,89.3395
2023-05-19T03:04:26.682Z,89.2618
2023-05-19T03:05:28.070Z,88.4933
2023-05-19T03:06:29.066Z,88.9584
2023-05-19T03:11:32.120Z,89.2019
2023-05-19T03:12:32.565Z,89.0299
2023-05-19T03:13:33.489Z,88.3042
2023-05-19T03:15:34.080Z,88.3534
2023-05-19T03:16:35.248Z,87.7512
2023-05-19T03:17:35.593Z,88.5631
2023-05-19T03:18:35.699Z,88.8300
2023-05-19T03:19:37.109Z,88.4636
2023-05-19T03:20:40.922Z,88.6140
2023-05-19T03:21:39.976Z,88.8126
2023-05-19T03:25:42.301Z,88.0393
2023-05-19T03:27:43.017Z,87.9592
2023-05-19T03:28:43.569Z,88.6349
2023-05-19T03:30:43.371Z,88.3734
2023-05-19T03:31:43.492Z,88.9293
2023-05-19T03:32:43.768Z,89.2205
2023-05-19T03:33:44.557Z,89.4124
2023-05-19T03:35:45.741Z,89.5448
2023-05-19T03:36:46.068Z,89.6076
2023-05-19T03:37:46.692Z,88.8627
2023-05-19T03:38:47.801Z,89.5665
2023-05-19T03:44:50.264Z,88.7454
2023-05-19T03:45:50.926Z,88.8506
2023-05-19T03:46:52.717Z,89.0703
2023-05-19T03:47:53.412Z,88.5435
2023-05-19T03:48:54.979Z,88.3274
2023-05-19T03:53:55.600Z,90.3647
2023-05-19T03:54:57.020Z,90.9356
2023-05-19T04:04:01.936Z,90.8778
2023-05-19T04:09:04.212Z,90.2260
2023-05-19T04:10:04.570Z,90.3136
2023-05-19T04:12:07.721Z,91.3247
2023-05-19T04:14:09.666Z,92.0190
2023-05-19T04:15:09.802Z,92.2233
2023-05-19T04:16:11.425Z,92.5414
2023-05-19T04:18:11.872Z,93.2677
2023-05-19T04:20:13.182Z,92.8681
2023-05-19T04:21:13.864Z,92.0762
2023-05-19T04:22:15.057Z,92.0704
2023-05-19T04:23:15.814Z,92.0760
2023-05-19T04:24:17.327Z,92.1451
2023-05-19T04:25:17.490Z,92.3692
2023-05-19T04:26:17.964Z,92.9064
2023-05-19T04:27:19.163Z,91.7898
2023-05-19T04:30:21.929Z,92.6813
2023-05-19T04:31:22.051Z,92.1097
2023-05-19T04:32:22.851Z,92.7008
2023-05-19T04:33:24.270Z,92.6972
2023-05-19T04:34:25.318Z,92.3319
2023-05-19T04:38:26.847Z,91.2483
2023-05-19T04:39:27.489Z,91.1778
2023-05-19T04:40:27.806Z,90.7627
2023-05-19T04:41:28.759Z,89.9717
2023-05-19T04:42:29.883Z,89.7658
2023-05-19T04:43:30.160Z,89.8336
2023-05-19T04:44:31.559Z,89.6379
2023-05-19T04:45:31.738Z,89.7282
2023-05-19T04:47:34.627Z,89.4242
2023-05-19T04:53:39.282Z,87.6013
2023-05-19T04:54:39.511Z,88.4207
2023-05-19T04:55:39.873Z,88.5454
2023-05-19T04:56:40.443Z,88.5558
2023-05-19T05:04:43.595Z,86.8969
2023-05-19T05:05:45.365Z,88.2029
2023-05-19T05:07:45.593Z,86.6973
2023-05-19T05:08:46.688Z,85.7133
2023-05-19T05:09:47.093Z,86.2882
2023-05-19T05:10:47.706Z,85.9045
2023-05-19T05:22:54.908Z,84.6973
2023-05-19T05:23:56.150Z,84.1786
2023-05-19T05:24:56.251Z,83.8726
2023-05-19T05:25:56.650Z,84.8296
2023-05-19T05:28:59.807Z,84.3100
2023-05-19T05:30:00.298Z,83.3490
2023-05-19T05:31:00.518Z,84.1648
2023-05-19T05:32:00.927Z,84.2054
2023-05-19T05:33:01.270Z,84.1389
2023-05-19T05:34:02.333Z,84.6414
2023-05-19T05:35:03.404Z,85.8953
2023-05-19T05:36:04.882Z,84.2245
2023-05-19T05:37:06.278Z,84.7344
2023-05-19T05:38:07.047Z,85.2506
2023-05-19T05:39:08.397Z,86.5468
2023-05-19T05:40:08.807Z,86.2220
2023-05-19T05:41:09.856Z,85.2474
2023-05-19T05:42:11.063Z,85.4753
2023-05-19T05:43:12.534Z,85.7330
2023-05-19T05:44:12.767Z,85.7465
2023-05-19T05:45:13.212Z,86.3685
2023-05-19T05:56:20.348Z,85.4915
2023-05-19T05:57:20.813Z,85.7693
2023-05-19T05:58:21.726Z,86.1549
2023-05-19T05:59:22.713Z,86.3223
2023-05-19T06:01:22.168Z,87.6961
2023-05-19T06:02:23.786Z,87.0809
2023-05-19T06:03:24.719Z,86.1020
2023-05-19T06:04:26.005Z,86.3899
2023-05-19T06:05:26.446Z,85.2253
2023-05-19T06:06:27.486Z,86.2741
2023-05-19T06:07:28.007Z,85.5725
2023-05-19T06:11:07.230Z,85.0163
2023-05-19T06:12:08.276Z,85.6799
2023-05-19T06:13:08.890Z,85.3260
2023-05-19T06:14:09.516Z,85.5624
2023-05-19T06:15:09.782Z,85.9777
2023-05-19T06:17:12.830Z,86.0319
2023-05-19T06:18:13.850Z,85.8955
2023-05-19T06:23:18.183Z,85.5535
2023-05-19T06:24:18.853Z,85.4837
2023-05-19T06:25:18.878Z,85.0594
2023-05-19T06:29:21.377Z,86.6076
2023-05-19T06:30:21.836Z,87.1538
2023-05-19T06:31:22.930Z,86.0997
2023-05-19T06:32:22.919Z,86.3126
2023-05-19T06:33:25.556Z,86.3874
2023-05-19T06:34:25.681Z,86.0677
2023-05-19T06:39:30.351Z,85.6316
2023-05-19T06:40:31.498Z,86.9248
2023-05-19T06:42:32.022Z,86.1921
2023-05-19T06:43:32.396Z,87.3042
2023-05-19T06:44:33.477Z,86.6348
2023-05-19T06:45:34.216Z,87.4012
2023-05-19T06:46:34.346Z,88.0361
2023-05-19T06:47:35.498Z,87.3691
2023-05-19T06:48:35.784Z,85.8629
2023-05-19T06:49:37.761Z,85.4290
2023-05-19T06:54:39.136Z,85.5600
2023-05-19T06:55:54.356Z,86.8679
2023-05-19T06:56:40.725Z,86.6367
2023-05-19T06:58:43.640Z,85.9923
2023-05-19T06:59:43.934Z,86.6736
2023-05-19T07:00:44.883Z,86.2564
2023-05-19T07:09:47.200Z,84.9928
2023-05-19T07:12:48.598Z,84.9928
2023-05-19T07:15:49.701Z,84.9928
2023-05-19T07:16:50.253Z,84.9928
2023-05-19T07:17:52.120Z,84.9928
2023-05-19T07:18:52.507Z,84.9928
2023-05-19T07:19:53.810Z,83.3502
2023-05-19T07:20:54.102Z,82.9651
2023-05-19T07:21:55.620Z,85.2795
2023-05-19T07:22:55.903Z,85.1759
2023-05-19T07:23:57.113Z,85.1759
2023-05-19T07:26:58.849Z,82.8367
2023-05-19T07:27:59.266Z,82.8367
2023-05-19T07:29:12.203Z,82.8367
2023-05-19T07:30:02.156Z,82.8367
2023-05-19T07:31:03.278Z,82.8367
2023-05-19T07:32:04.074Z,82.8367
2023-05-19T07:33:05.340Z,82.8367
2023-05-19T07:34:06.244Z,82.8367
2023-05-19T07:35:06.575Z,82.8367
2023-05-19T07:36:07.984Z,82.8367
2023-05-19T07:39:11.295Z,82.8367
2023-05-19T07:40:12.006Z,82.8367
2023-05-19T07:41:13.022Z,82.8367
2023-05-19T07:42:13.514Z,82.8367
2023-05-19T07:43:14.702Z,82.8367
2023-05-19T07:44:15.581Z,82.8367
2023-05-19T07:45:16.710Z,82.8367
2023-05-19T07:49:18.357Z,82.8367
2023-05-19T07:50:19.310Z,82.8367
2023-05-19T07:51:19.558Z,82.8367
2023-05-19T07:54:21.657Z,82.8367
2023-05-19T07:55:22.106Z,82.8367
2023-05-19T07:56:22.823Z,82.8367
2023-05-19T07:57:23.207Z,82.8367
2023-05-19T07:58:24.073Z,82.8367
2023-05-19T07:59:25.427Z,82.8367
2023-05-19T08:00:26.070Z,82.8367
2023-05-19T08:01:27.134Z,82.8367
2023-05-19T08:02:27.670Z,82.8367
2023-05-19T08:04:29.651Z,82.8367
2023-05-19T08:05:30.303Z,82.8367
2023-05-19T08:06:30.867Z,82.8367
2023-05-19T08:07:31.354Z,82.8367
2023-05-19T08:12:33.891Z,82.8367
2023-05-19T08:13:34.669Z,82.8367
2023-05-19T08:14:34.962Z,82.8367
2023-05-19T08:15:35.478Z,82.8367
2023-05-19T08:16:36.021Z,82.8367
2023-05-19T08:17:36.928Z,82.8367
2023-05-19T08:18:37.766Z,82.8367
2023-05-19T08:21:38.737Z,82.8367
2023-05-19T08:22:38.971Z,82.8367
2023-05-19T08:23:39.902Z,82.8367
2023-05-19T08:24:40.705Z,82.8367
2023-05-19T08:25:42.358Z,82.8367
2023-05-19T08:26:43.232Z,82.8367
2023-05-19T08:27:44.022Z,82.8367
2023-05-19T08:28:44.969Z,82.8367
2023-05-19T08:29:45.977Z,82.8367
2023-05-19T08:33:47.502Z,82.8367
2023-05-19T08:34:47.883Z,82.8367
2023-05-19T08:35:47.922Z,82.8367
2023-05-19T08:36:49.060Z,82.8367
2023-05-19T08:37:49.155Z,82.8367
2023-05-19T08:38:50.117Z,82.8367
2023-05-19T08:39:51.327Z,82.8367
2023-05-19T08:40:51.735Z,82.8367
